sensor_id;sensor_type;location;lat;lon;timestamp;P1;durP1;ratioP1;P2;durP2;ratioP2
8978;SDS011;4524;51.364;5.448;2023-04-01T00:01:03;6.07;;;2.38;;
8978;SDS011;4524;51.364;5.448;2023-04-01T00:03:34;4.47;;;1.90;;
8978;SDS011;4524;51.364;5.448;2023-04-01T00:06:03;4.72;;;2.22;;
8978;SDS011;4524;51.364;5.448;2023-04-01T00:08:31;4.85;;;1.90;;
8978;SDS011;4524;51.364;5.448;2023-04-01T00:10:59;5.80;;;2.10;;
8978;SDS011;4524;51.364;5.448;2023-04-01T00:13:27;4.97;;;1.90;;
8978;SDS011;4524;51.364;5.448;2023-04-01T00:15:55;4.13;;;1.80;;
8978;SDS011;4524;51.364;5.448;2023-04-01T00:18:25;4.45;;;1.80;;
8978;SDS011;4524;51.364;5.448;2023-04-01T00:20:55;4.57;;;1.88;;
8978;SDS011;4524;51.364;5.448;2023-04-01T00:23:23;4.70;;;1.60;;
8978;SDS011;4524;51.364;5.448;2023-04-01T00:25:51;5.20;;;1.80;;
8978;SDS011;4524;51.364;5.448;2023-04-01T00:28:19;4.72;;;1.77;;
8978;SDS011;4524;51.364;5.448;2023-04-01T00:30:47;3.42;;;1.73;;
8978;SDS011;4524;51.364;5.448;2023-04-01T00:33:15;3.03;;;1.60;;
8978;SDS011;4524;51.364;5.448;2023-04-01T00:35:44;3.15;;;1.52;;
8978;SDS011;4524;51.364;5.448;2023-04-01T00:38:13;5.47;;;1.70;;
8978;SDS011;4524;51.364;5.448;2023-04-01T00:40:43;3.97;;;1.60;;
8978;SDS011;4524;51.364;5.448;2023-04-01T00:43:14;3.97;;;1.60;;
8978;SDS011;4524;51.364;5.448;2023-04-01T00:45:46;3.55;;;1.40;;
8978;SDS011;4524;51.364;5.448;2023-04-01T00:48:16;2.83;;;1.50;;
8978;SDS011;4524;51.364;5.448;2023-04-01T00:50:48;3.70;;;1.50;;
8978;SDS011;4524;51.364;5.448;2023-04-01T00:53:20;5.28;;;1.70;;
8978;SDS011;4524;51.364;5.448;2023-04-01T00:55:51;3.47;;;1.60;;
8978;SDS011;4524;51.364;5.448;2023-04-01T00:58:24;5.43;;;1.60;;
8978;SDS011;4524;51.364;5.448;2023-04-01T01:00:54;3.83;;;1.42;;
8978;SDS011;4524;51.364;5.448;2023-04-01T01:03:24;4.32;;;1.45;;
8978;SDS011;4524;51.364;5.448;2023-04-01T01:05:59;3.60;;;1.50;;
8978;SDS011;4524;51.364;5.448;2023-04-01T01:08:45;2.37;;;1.37;;
8978;SDS011;4524;51.364;5.448;2023-04-01T01:11:26;4.72;;;1.48;;
8978;SDS011;4524;51.364;5.448;2023-04-01T01:14:19;2.33;;;1.25;;
8978;SDS011;4524;51.364;5.448;2023-04-01T01:16:57;3.25;;;1.30;;
8978;SDS011;4524;51.364;5.448;2023-04-01T01:19:35;1.92;;;1.15;;
8978;SDS011;4524;51.364;5.448;2023-04-01T01:22:33;2.45;;;1.20;;
8978;SDS011;4524;51.364;5.448;2023-04-01T01:25:13;1.90;;;1.30;;
8978;SDS011;4524;51.364;5.448;2023-04-01T01:27:49;2.55;;;1.38;;
8978;SDS011;4524;51.364;5.448;2023-04-01T01:30:33;1.63;;;1.30;;
8978;SDS011;4524;51.364;5.448;2023-04-01T01:36:01;2.20;;;1.40;;
8978;SDS011;4524;51.364;5.448;2023-04-01T01:38:33;2.30;;;1.50;;
8978;SDS011;4524;51.364;5.448;2023-04-01T01:41:04;2.17;;;1.40;;
8978;SDS011;4524;51.364;5.448;2023-04-01T01:43:35;2.25;;;1.33;;
8978;SDS011;4524;51.364;5.448;2023-04-01T01:46:25;2.38;;;1.30;;
8978;SDS011;4524;51.364;5.448;2023-04-01T01:48:55;1.98;;;1.40;;
8978;SDS011;4524;51.364;5.448;2023-04-01T01:51:27;2.40;;;1.60;;
8978;SDS011;4524;51.364;5.448;2023-04-01T01:53:55;2.47;;;1.57;;
8978;SDS011;4524;51.364;5.448;2023-04-01T01:56:25;2.10;;;1.50;;
8978;SDS011;4524;51.364;5.448;2023-04-01T01:58:55;2.03;;;1.50;;
8978;SDS011;4524;51.364;5.448;2023-04-01T02:01:30;2.30;;;1.70;;
8978;SDS011;4524;51.364;5.448;2023-04-01T02:04:08;2.88;;;1.60;;
8978;SDS011;4524;51.364;5.448;2023-04-01T02:06:41;2.38;;;1.90;;
8978;SDS011;4524;51.364;5.448;2023-04-01T02:09:14;2.75;;;1.77;;
8978;SDS011;4524;51.364;5.448;2023-04-01T02:11:45;3.08;;;1.80;;
8978;SDS011;4524;51.364;5.448;2023-04-01T02:14:16;1.98;;;1.50;;
8978;SDS011;4524;51.364;5.448;2023-04-01T02:16:48;1.90;;;1.50;;
8978;SDS011;4524;51.364;5.448;2023-04-01T02:19:19;1.90;;;1.48;;
8978;SDS011;4524;51.364;5.448;2023-04-01T02:21:53;2.45;;;1.85;;
8978;SDS011;4524;51.364;5.448;2023-04-01T02:24:25;3.03;;;2.30;;
8978;SDS011;4524;51.364;5.448;2023-04-01T02:26:54;3.80;;;2.50;;
8978;SDS011;4524;51.364;5.448;2023-04-01T02:29:23;3.90;;;3.40;;
8978;SDS011;4524;51.364;5.448;2023-04-01T02:31:52;3.40;;;3.10;;
8978;SDS011;4524;51.364;5.448;2023-04-01T02:34:22;4.10;;;3.40;;
8978;SDS011;4524;51.364;5.448;2023-04-01T02:36:53;5.23;;;3.93;;
8978;SDS011;4524;51.364;5.448;2023-04-01T02:39:24;4.47;;;3.65;;
8978;SDS011;4524;51.364;5.448;2023-04-01T02:41:52;6.22;;;4.93;;
8978;SDS011;4524;51.364;5.448;2023-04-01T02:44:21;6.30;;;5.18;;
8978;SDS011;4524;51.364;5.448;2023-04-01T02:46:49;5.45;;;4.90;;
8978;SDS011;4524;51.364;5.448;2023-04-01T02:49:18;7.67;;;5.53;;
8978;SDS011;4524;51.364;5.448;2023-04-01T02:51:46;7.80;;;4.95;;
8978;SDS011;4524;51.364;5.448;2023-04-01T02:54:15;6.43;;;4.97;;
8978;SDS011;4524;51.364;5.448;2023-04-01T02:56:43;7.47;;;5.43;;
8978;SDS011;4524;51.364;5.448;2023-04-01T02:59:11;7.07;;;5.30;;
8978;SDS011;4524;51.364;5.448;2023-04-01T03:01:39;6.47;;;5.53;;
8978;SDS011;4524;51.364;5.448;2023-04-01T03:04:07;6.80;;;5.25;;
8978;SDS011;4524;51.364;5.448;2023-04-01T03:06:35;6.03;;;4.82;;
8978;SDS011;4524;51.364;5.448;2023-04-01T03:09:03;6.93;;;5.47;;
8978;SDS011;4524;51.364;5.448;2023-04-01T03:11:33;5.82;;;5.22;;
8978;SDS011;4524;51.364;5.448;2023-04-01T03:14:01;5.68;;;5.18;;
8978;SDS011;4524;51.364;5.448;2023-04-01T03:16:29;6.80;;;5.63;;
8978;SDS011;4524;51.364;5.448;2023-04-01T03:18:57;5.38;;;4.88;;
8978;SDS011;4524;51.364;5.448;2023-04-01T03:21:28;5.15;;;4.57;;
8978;SDS011;4524;51.364;5.448;2023-04-01T03:23:56;5.23;;;4.73;;
8978;SDS011;4524;51.364;5.448;2023-04-01T03:26:24;4.32;;;3.92;;
8978;SDS011;4524;51.364;5.448;2023-04-01T03:28:55;5.40;;;4.60;;
8978;SDS011;4524;51.364;5.448;2023-04-01T03:31:23;5.43;;;4.22;;
8978;SDS011;4524;51.364;5.448;2023-04-01T03:33:55;4.03;;;3.65;;
8978;SDS011;4524;51.364;5.448;2023-04-01T03:36:23;5.03;;;4.10;;
8978;SDS011;4524;51.364;5.448;2023-04-01T03:38:51;4.88;;;4.43;;
8978;SDS011;4524;51.364;5.448;2023-04-01T03:41:28;4.93;;;4.25;;
8978;SDS011;4524;51.364;5.448;2023-04-01T03:43:58;4.70;;;4.28;;
8978;SDS011;4524;51.364;5.448;2023-04-01T03:46:26;4.38;;;4.00;;
8978;SDS011;4524;51.364;5.448;2023-04-01T03:48:54;4.60;;;4.20;;
8978;SDS011;4524;51.364;5.448;2023-04-01T03:51:22;4.97;;;4.57;;
8978;SDS011;4524;51.364;5.448;2023-04-01T03:53:50;4.97;;;4.57;;
8978;SDS011;4524;51.364;5.448;2023-04-01T03:56:18;4.80;;;4.40;;
8978;SDS011;4524;51.364;5.448;2023-04-01T03:58:46;5.13;;;4.72;;
8978;SDS011;4524;51.364;5.448;2023-04-01T04:01:17;5.50;;;5.00;;
8978;SDS011;4524;51.364;5.448;2023-04-01T04:03:50;5.23;;;4.73;;
8978;SDS011;4524;51.364;5.448;2023-04-01T04:06:19;5.15;;;4.70;;
8978;SDS011;4524;51.364;5.448;2023-04-01T04:08:47;5.00;;;4.47;;
8978;SDS011;4524;51.364;5.448;2023-04-01T04:11:15;6.35;;;5.75;;
8978;SDS011;4524;51.364;5.448;2023-04-01T04:13:44;5.70;;;5.20;;
8978;SDS011;4524;51.364;5.448;2023-04-01T04:16:14;5.72;;;5.22;;
8978;SDS011;4524;51.364;5.448;2023-04-01T04:18:49;7.10;;;6.50;;
8978;SDS011;4524;51.364;5.448;2023-04-01T04:21:17;7.15;;;6.55;;
8978;SDS011;4524;51.364;5.448;2023-04-01T04:23:45;8.40;;;7.60;;
8978;SDS011;4524;51.364;5.448;2023-04-01T04:26:15;8.17;;;7.47;;
8978;SDS011;4524;51.364;5.448;2023-04-01T04:28:51;9.27;;;8.32;;
8978;SDS011;4524;51.364;5.448;2023-04-01T04:31:21;8.13;;;7.43;;
8978;SDS011;4524;51.364;5.448;2023-04-01T04:33:52;8.07;;;7.30;;
8978;SDS011;4524;51.364;5.448;2023-04-01T04:36:20;8.87;;;7.93;;
8978;SDS011;4524;51.364;5.448;2023-04-01T04:38:50;8.55;;;7.65;;
8978;SDS011;4524;51.364;5.448;2023-04-01T04:41:18;8.75;;;7.85;;
8978;SDS011;4524;51.364;5.448;2023-04-01T04:43:50;7.95;;;7.32;;
8978;SDS011;4524;51.364;5.448;2023-04-01T04:46:21;8.38;;;7.68;;
8978;SDS011;4524;51.364;5.448;2023-04-01T04:48:54;8.70;;;8.00;;
8978;SDS011;4524;51.364;5.448;2023-04-01T04:51:22;9.68;;;8.77;;
8978;SDS011;4524;51.364;5.448;2023-04-01T04:53:51;8.98;;;8.15;;
8978;SDS011;4524;51.364;5.448;2023-04-01T04:56:27;9.60;;;8.35;;
8978;SDS011;4524;51.364;5.448;2023-04-01T04:59:04;9.25;;;8.35;;
8978;SDS011;4524;51.364;5.448;2023-04-01T05:01:49;8.77;;;7.95;;
8978;SDS011;4524;51.364;5.448;2023-04-01T05:04:17;11.23;;;9.52;;
8978;SDS011;4524;51.364;5.448;2023-04-01T05:06:45;8.43;;;7.57;;
8978;SDS011;4524;51.364;5.448;2023-04-01T05:09:15;9.93;;;8.95;;
8978;SDS011;4524;51.364;5.448;2023-04-01T05:11:43;9.45;;;8.55;;
8978;SDS011;4524;51.364;5.448;2023-04-01T05:14:12;9.20;;;8.30;;
8978;SDS011;4524;51.364;5.448;2023-04-01T05:16:44;8.60;;;7.75;;
8978;SDS011;4524;51.364;5.448;2023-04-01T05:19:14;7.75;;;7.05;;
8978;SDS011;4524;51.364;5.448;2023-04-01T05:21:42;7.82;;;7.13;;
8978;SDS011;4524;51.364;5.448;2023-04-01T05:24:11;8.45;;;7.65;;
8978;SDS011;4524;51.364;5.448;2023-04-01T05:26:39;7.30;;;6.60;;
8978;SDS011;4524;51.364;5.448;2023-04-01T05:32:01;8.18;;;7.47;;
8978;SDS011;4524;51.364;5.448;2023-04-01T05:34:31;6.15;;;5.65;;
8978;SDS011;4524;51.364;5.448;2023-04-01T05:36:58;6.68;;;6.07;;
8978;SDS011;4524;51.364;5.448;2023-04-01T05:39:26;7.22;;;6.53;;
8978;SDS011;4524;51.364;5.448;2023-04-01T05:41:54;7.00;;;6.40;;
8978;SDS011;4524;51.364;5.448;2023-04-01T05:44:22;6.37;;;5.77;;
8978;SDS011;4524;51.364;5.448;2023-04-01T05:47:13;6.20;;;5.60;;
8978;SDS011;4524;51.364;5.448;2023-04-01T05:49:43;5.90;;;5.40;;
8978;SDS011;4524;51.364;5.448;2023-04-01T05:52:11;6.07;;;5.43;;
8978;SDS011;4524;51.364;5.448;2023-04-01T05:54:39;4.88;;;4.47;;
8978;SDS011;4524;51.364;5.448;2023-04-01T05:57:07;5.30;;;4.80;;
8978;SDS011;4524;51.364;5.448;2023-04-01T05:59:35;5.07;;;4.60;;
8978;SDS011;4524;51.364;5.448;2023-04-01T06:02:03;4.60;;;4.20;;
8978;SDS011;4524;51.364;5.448;2023-04-01T06:04:32;5.72;;;5.07;;
8978;SDS011;4524;51.364;5.448;2023-04-01T06:07:08;4.60;;;4.20;;
8978;SDS011;4524;51.364;5.448;2023-04-01T06:09:41;4.55;;;4.15;;
8978;SDS011;4524;51.364;5.448;2023-04-01T06:12:20;4.53;;;4.13;;
8978;SDS011;4524;51.364;5.448;2023-04-01T06:15:01;4.55;;;4.15;;
8978;SDS011;4524;51.364;5.448;2023-04-01T06:17:42;4.50;;;4.10;;
8978;SDS011;4524;51.364;5.448;2023-04-01T06:20:31;3.80;;;3.50;;
8978;SDS011;4524;51.364;5.448;2023-04-01T06:23:12;4.63;;;3.80;;
8978;SDS011;4524;51.364;5.448;2023-04-01T06:28:56;3.90;;;3.60;;
8978;SDS011;4524;51.364;5.448;2023-04-01T06:31:51;3.55;;;3.22;;
8978;SDS011;4524;51.364;5.448;2023-04-01T06:34:49;4.10;;;3.58;;
8978;SDS011;4524;51.364;5.448;2023-04-01T06:37:52;3.90;;;3.50;;
8978;SDS011;4524;51.364;5.448;2023-04-01T06:41:03;4.07;;;3.70;;
8978;SDS011;4524;51.364;5.448;2023-04-01T06:44:07;3.97;;;3.58;;
8978;SDS011;4524;51.364;5.448;2023-04-01T06:47:01;3.30;;;3.03;;
8978;SDS011;4524;51.364;5.448;2023-04-01T06:49:57;4.13;;;3.70;;
8978;SDS011;4524;51.364;5.448;2023-04-01T06:52:54;3.47;;;3.10;;
8978;SDS011;4524;51.364;5.448;2023-04-01T06:55:47;3.30;;;3.00;;
8978;SDS011;4524;51.364;5.448;2023-04-01T06:58:33;3.20;;;2.92;;
8978;SDS011;4524;51.364;5.448;2023-04-01T07:01:04;4.00;;;3.60;;
8978;SDS011;4524;51.364;5.448;2023-04-01T07:03:36;3.30;;;3.00;;
8978;SDS011;4524;51.364;5.448;2023-04-01T07:06:09;3.30;;;3.00;;
8978;SDS011;4524;51.364;5.448;2023-04-01T07:08:50;3.40;;;3.10;;
8978;SDS011;4524;51.364;5.448;2023-04-01T07:11:22;3.58;;;3.28;;
8978;SDS011;4524;51.364;5.448;2023-04-01T07:14:19;3.90;;;3.60;;
8978;SDS011;4524;51.364;5.448;2023-04-01T07:16:51;4.50;;;4.10;;
8978;SDS011;4524;51.364;5.448;2023-04-01T07:19:24;4.50;;;4.10;;
8978;SDS011;4524;51.364;5.448;2023-04-01T07:22:03;5.50;;;5.00;;
8978;SDS011;4524;51.364;5.448;2023-04-01T07:24:53;6.28;;;5.30;;
8978;SDS011;4524;51.364;5.448;2023-04-01T07:27:24;6.45;;;5.85;;
8978;SDS011;4524;51.364;5.448;2023-04-01T07:29:53;5.55;;;5.05;;
8978;SDS011;4524;51.364;5.448;2023-04-01T07:32:26;6.47;;;5.88;;
8978;SDS011;4524;51.364;5.448;2023-04-01T07:35:05;7.15;;;6.45;;
8978;SDS011;4524;51.364;5.448;2023-04-01T07:37:42;7.53;;;6.80;;
8978;SDS011;4524;51.364;5.448;2023-04-01T07:40:21;8.63;;;7.70;;
8978;SDS011;4524;51.364;5.448;2023-04-01T07:42:59;9.25;;;8.20;;
8978;SDS011;4524;51.364;5.448;2023-04-01T07:45:49;10.95;;;9.38;;
8978;SDS011;4524;51.364;5.448;2023-04-01T07:48:23;12.60;;;9.95;;
8978;SDS011;4524;51.364;5.448;2023-04-01T07:51:02;11.20;;;9.75;;
8978;SDS011;4524;51.364;5.448;2023-04-01T07:53:36;13.00;;;10.65;;
8978;SDS011;4524;51.364;5.448;2023-04-01T07:56:11;14.43;;;12.40;;
8978;SDS011;4524;51.364;5.448;2023-04-01T07:58:48;17.63;;;13.55;;
8978;SDS011;4524;51.364;5.448;2023-04-01T08:01:45;16.75;;;13.35;;
8978;SDS011;4524;51.364;5.448;2023-04-01T08:04:23;15.40;;;13.20;;
8978;SDS011;4524;51.364;5.448;2023-04-01T08:07:02;15.70;;;14.00;;
8978;SDS011;4524;51.364;5.448;2023-04-01T08:09:41;18.75;;;15.13;;
8978;SDS011;4524;51.364;5.448;2023-04-01T08:12:38;19.77;;;16.40;;
8978;SDS011;4524;51.364;5.448;2023-04-01T08:15:35;21.38;;;17.13;;
8978;SDS011;4524;51.364;5.448;2023-04-01T08:18:15;23.93;;;17.37;;
8978;SDS011;4524;51.364;5.448;2023-04-01T08:20:54;21.50;;;16.40;;
8978;SDS011;4524;51.364;5.448;2023-04-01T08:23:26;21.13;;;15.50;;
8978;SDS011;4524;51.364;5.448;2023-04-01T08:25:56;19.33;;;15.45;;
8978;SDS011;4524;51.364;5.448;2023-04-01T08:28:34;19.80;;;15.57;;
8978;SDS011;4524;51.364;5.448;2023-04-01T08:31:09;14.20;;;12.70;;
8978;SDS011;4524;51.364;5.448;2023-04-01T08:33:45;19.88;;;15.27;;
8978;SDS011;4524;51.364;5.448;2023-04-01T08:36:15;16.93;;;14.03;;
8978;SDS011;4524;51.364;5.448;2023-04-01T08:38:55;15.73;;;13.80;;
8978;SDS011;4524;51.364;5.448;2023-04-01T08:45:01;15.73;;;12.68;;
8978;SDS011;4524;51.364;5.448;2023-04-01T08:48:01;16.50;;;12.73;;
8978;SDS011;4524;51.364;5.448;2023-04-01T08:51:11;13.43;;;12.02;;
8978;SDS011;4524;51.364;5.448;2023-04-01T08:53:58;13.95;;;12.55;;
8978;SDS011;4524;51.364;5.448;2023-04-01T08:56:42;13.45;;;11.98;;
8978;SDS011;4524;51.364;5.448;2023-04-01T08:59:32;13.18;;;11.77;;
8978;SDS011;4524;51.364;5.448;2023-04-01T09:02:46;12.83;;;11.53;;
8978;SDS011;4524;51.364;5.448;2023-04-01T09:08:30;12.30;;;11.10;;
8978;SDS011;4524;51.364;5.448;2023-04-01T09:11:06;11.38;;;10.27;;
8978;SDS011;4524;51.364;5.448;2023-04-01T09:14:01;12.57;;;11.27;;
8978;SDS011;4524;51.364;5.448;2023-04-01T09:17:30;10.82;;;9.82;;
8978;SDS011;4524;51.364;5.448;2023-04-01T09:20:20;11.20;;;10.07;;
8978;SDS011;4524;51.364;5.448;2023-04-01T09:23:08;11.10;;;10.00;;
8978;SDS011;4524;51.364;5.448;2023-04-01T09:25:53;11.00;;;9.88;;
8978;SDS011;4524;51.364;5.448;2023-04-01T09:28:33;11.93;;;10.63;;
8978;SDS011;4524;51.364;5.448;2023-04-01T09:34:47;12.07;;;10.38;;
8978;SDS011;4524;51.364;5.448;2023-04-01T09:37:27;11.57;;;9.90;;
8978;SDS011;4524;51.364;5.448;2023-04-01T09:40:13;12.23;;;10.05;;
8978;SDS011;4524;51.364;5.448;2023-04-01T09:45:58;11.80;;;9.50;;
8978;SDS011;4524;51.364;5.448;2023-04-01T09:48:42;10.77;;;9.60;;
8978;SDS011;4524;51.364;5.448;2023-04-01T09:51:25;11.32;;;10.13;;
8978;SDS011;4524;51.364;5.448;2023-04-01T09:54:03;11.00;;;9.80;;
8978;SDS011;4524;51.364;5.448;2023-04-01T09:56:45;10.73;;;9.63;;
8978;SDS011;4524;51.364;5.448;2023-04-01T10:06:05;10.88;;;9.07;;
8978;SDS011;4524;51.364;5.448;2023-04-01T10:09:07;11.05;;;9.95;;
8978;SDS011;4524;51.364;5.448;2023-04-01T10:11:59;12.38;;;10.30;;
8978;SDS011;4524;51.364;5.448;2023-04-01T10:14:58;11.38;;;10.02;;
8978;SDS011;4524;51.364;5.448;2023-04-01T10:18:01;10.52;;;9.48;;
8978;SDS011;4524;51.364;5.448;2023-04-01T10:20:55;12.15;;;9.93;;
8978;SDS011;4524;51.364;5.448;2023-04-01T10:23:46;11.00;;;9.60;;
8978;SDS011;4524;51.364;5.448;2023-04-01T10:30:16;9.60;;;8.10;;
8978;SDS011;4524;51.364;5.448;2023-04-01T10:33:19;9.68;;;8.55;;
8978;SDS011;4524;51.364;5.448;2023-04-01T10:36:43;7.80;;;7.00;;
8978;SDS011;4524;51.364;5.448;2023-04-01T10:39:31;6.63;;;5.90;;
8978;SDS011;4524;51.364;5.448;2023-04-01T10:52:03;7.75;;;5.75;;
8978;SDS011;4524;51.364;5.448;2023-04-01T10:55:12;6.65;;;5.95;;
8978;SDS011;4524;51.364;5.448;2023-04-01T10:58:39;7.40;;;5.82;;
8978;SDS011;4524;51.364;5.448;2023-04-01T11:05:22;5.35;;;4.82;;
8978;SDS011;4524;51.364;5.448;2023-04-01T11:08:31;5.85;;;5.22;;
8978;SDS011;4524;51.364;5.448;2023-04-01T11:11:35;6.20;;;5.13;;
8978;SDS011;4524;51.364;5.448;2023-04-01T11:14:47;6.25;;;4.45;;
8978;SDS011;4524;51.364;5.448;2023-04-01T11:21:23;4.55;;;3.85;;
8978;SDS011;4524;51.364;5.448;2023-04-01T11:24:38;4.60;;;4.20;;
8978;SDS011;4524;51.364;5.448;2023-04-01T11:27:40;4.15;;;3.70;;
8978;SDS011;4524;51.364;5.448;2023-04-01T11:30:20;4.43;;;4.00;;
8978;SDS011;4524;51.364;5.448;2023-04-01T11:32:57;4.97;;;3.97;;
8978;SDS011;4524;51.364;5.448;2023-04-01T11:35:35;4.60;;;3.80;;
8978;SDS011;4524;51.364;5.448;2023-04-01T11:38:39;4.25;;;3.80;;
8978;SDS011;4524;51.364;5.448;2023-04-01T11:41:49;4.25;;;3.85;;
8978;SDS011;4524;51.364;5.448;2023-04-01T11:44:45;4.05;;;3.75;;
8978;SDS011;4524;51.364;5.448;2023-04-01T11:50:30;4.00;;;3.70;;
8978;SDS011;4524;51.364;5.448;2023-04-01T11:53:15;4.63;;;4.00;;
8978;SDS011;4524;51.364;5.448;2023-04-01T11:55:56;4.85;;;4.45;;
8978;SDS011;4524;51.364;5.448;2023-04-01T11:58:42;4.50;;;4.07;;
8978;SDS011;4524;51.364;5.448;2023-04-01T12:01:35;4.77;;;4.30;;
8978;SDS011;4524;51.364;5.448;2023-04-01T12:04:17;4.10;;;3.70;;
8978;SDS011;4524;51.364;5.448;2023-04-01T12:07:09;4.97;;;3.97;;
8978;SDS011;4524;51.364;5.448;2023-04-01T12:09:48;4.20;;;3.80;;
8978;SDS011;4524;51.364;5.448;2023-04-01T12:12:26;4.40;;;4.00;;
8978;SDS011;4524;51.364;5.448;2023-04-01T12:15:13;4.25;;;3.85;;
8978;SDS011;4524;51.364;5.448;2023-04-01T12:17:50;5.38;;;3.67;;
8978;SDS011;4524;51.364;5.448;2023-04-01T12:20:33;3.43;;;3.13;;
8978;SDS011;4524;51.364;5.448;2023-04-01T12:23:15;3.30;;;2.90;;
8978;SDS011;4524;51.364;5.448;2023-04-01T12:26:06;3.03;;;2.80;;
8978;SDS011;4524;51.364;5.448;2023-04-01T12:28:45;3.15;;;2.85;;
8978;SDS011;4524;51.364;5.448;2023-04-01T12:31:28;2.90;;;2.70;;
8978;SDS011;4524;51.364;5.448;2023-04-01T12:34:13;3.10;;;2.63;;
8978;SDS011;4524;51.364;5.448;2023-04-01T12:37:05;2.78;;;2.53;;
8978;SDS011;4524;51.364;5.448;2023-04-01T12:39:44;3.30;;;3.00;;
8978;SDS011;4524;51.364;5.448;2023-04-01T12:42:30;3.10;;;2.80;;
8978;SDS011;4524;51.364;5.448;2023-04-01T12:45:26;3.10;;;2.80;;
8978;SDS011;4524;51.364;5.448;2023-04-01T12:48:04;3.00;;;2.78;;
8978;SDS011;4524;51.364;5.448;2023-04-01T12:50:48;3.20;;;2.90;;
8978;SDS011;4524;51.364;5.448;2023-04-01T12:53:33;3.30;;;3.00;;
8978;SDS011;4524;51.364;5.448;2023-04-01T12:56:14;3.00;;;2.80;;
8978;SDS011;4524;51.364;5.448;2023-04-01T12:59:00;3.30;;;3.00;;
8978;SDS011;4524;51.364;5.448;2023-04-01T13:01:54;3.20;;;2.90;;
8978;SDS011;4524;51.364;5.448;2023-04-01T13:07:24;3.50;;;3.20;;
8978;SDS011;4524;51.364;5.448;2023-04-01T13:10:18;3.45;;;2.88;;
8978;SDS011;4524;51.364;5.448;2023-04-01T13:12:59;3.78;;;3.47;;
8978;SDS011;4524;51.364;5.448;2023-04-01T13:15:44;4.23;;;3.83;;
8978;SDS011;4524;51.364;5.448;2023-04-01T13:18:21;3.75;;;3.45;;
8978;SDS011;4524;51.364;5.448;2023-04-01T13:21:01;4.65;;;4.15;;
8978;SDS011;4524;51.364;5.448;2023-04-01T13:23:40;4.82;;;4.43;;
8978;SDS011;4524;51.364;5.448;2023-04-01T13:26:18;5.10;;;4.60;;
8978;SDS011;4524;51.364;5.448;2023-04-01T13:28:53;4.97;;;4.00;;
8978;SDS011;4524;51.364;5.448;2023-04-01T13:31:31;4.30;;;4.00;;
8978;SDS011;4524;51.364;5.448;2023-04-01T13:34:15;5.05;;;4.55;;
8978;SDS011;4524;51.364;5.448;2023-04-01T13:36:55;4.68;;;4.28;;
8978;SDS011;4524;51.364;5.448;2023-04-01T13:39:39;5.18;;;4.43;;
8978;SDS011;4524;51.364;5.448;2023-04-01T13:42:15;4.38;;;3.97;;
8978;SDS011;4524;51.364;5.448;2023-04-01T13:44:49;4.30;;;3.90;;
8978;SDS011;4524;51.364;5.448;2023-04-01T13:47:32;4.95;;;4.45;;
8978;SDS011;4524;51.364;5.448;2023-04-01T13:50:23;4.28;;;3.88;;
8978;SDS011;4524;51.364;5.448;2023-04-01T13:53:15;4.25;;;3.85;;
8978;SDS011;4524;51.364;5.448;2023-04-01T13:56:11;4.60;;;4.20;;
8978;SDS011;4524;51.364;5.448;2023-04-01T13:58:55;4.40;;;4.00;;
8978;SDS011;4524;51.364;5.448;2023-04-01T14:01:35;4.80;;;4.40;;
8978;SDS011;4524;51.364;5.448;2023-04-01T14:04:27;5.40;;;4.88;;
8978;SDS011;4524;51.364;5.448;2023-04-01T14:07:18;5.32;;;4.82;;
8978;SDS011;4524;51.364;5.448;2023-04-01T14:10:03;5.97;;;4.95;;
8978;SDS011;4524;51.364;5.448;2023-04-01T14:12:40;5.50;;;5.00;;
8978;SDS011;4524;51.364;5.448;2023-04-01T14:15:17;6.15;;;5.53;;
8978;SDS011;4524;51.364;5.448;2023-04-01T14:18:01;7.05;;;6.13;;
8978;SDS011;4524;51.364;5.448;2023-04-01T14:20:51;6.25;;;5.47;;
8978;SDS011;4524;51.364;5.448;2023-04-01T14:23:40;6.63;;;6.00;;
8978;SDS011;4524;51.364;5.448;2023-04-01T14:26:21;6.85;;;5.90;;
8978;SDS011;4524;51.364;5.448;2023-04-01T14:29:02;6.45;;;5.78;;
8978;SDS011;4524;51.364;5.448;2023-04-01T14:31:44;6.35;;;5.75;;
8978;SDS011;4524;51.364;5.448;2023-04-01T14:34:21;6.80;;;6.10;;
8978;SDS011;4524;51.364;5.448;2023-04-01T14:37:01;7.45;;;5.97;;
8978;SDS011;4524;51.364;5.448;2023-04-01T14:39:43;6.45;;;5.72;;
8978;SDS011;4524;51.364;5.448;2023-04-01T14:42:36;6.40;;;5.80;;
8978;SDS011;4524;51.364;5.448;2023-04-01T14:45:24;5.78;;;5.15;;
8978;SDS011;4524;51.364;5.448;2023-04-01T14:48:17;5.80;;;5.25;;
8978;SDS011;4524;51.364;5.448;2023-04-01T14:50:53;6.90;;;6.20;;
8978;SDS011;4524;51.364;5.448;2023-04-01T14:53:26;6.40;;;5.80;;
8978;SDS011;4524;51.364;5.448;2023-04-01T14:55:56;6.15;;;5.30;;
8978;SDS011;4524;51.364;5.448;2023-04-01T14:58:27;6.13;;;5.13;;
8978;SDS011;4524;51.364;5.448;2023-04-01T15:01:13;5.15;;;4.65;;
8978;SDS011;4524;51.364;5.448;2023-04-01T15:03:54;4.20;;;3.80;;
8978;SDS011;4524;51.364;5.448;2023-04-01T15:07:00;4.85;;;4.35;;
8978;SDS011;4524;51.364;5.448;2023-04-01T15:09:38;4.40;;;4.00;;
8978;SDS011;4524;51.364;5.448;2023-04-01T15:12:16;4.95;;;4.25;;
8978;SDS011;4524;51.364;5.448;2023-04-01T15:14:56;4.72;;;4.00;;
8978;SDS011;4524;51.364;5.448;2023-04-01T15:17:43;5.28;;;4.47;;
8978;SDS011;4524;51.364;5.448;2023-04-01T15:20:25;6.43;;;4.80;;
8978;SDS011;4524;51.364;5.448;2023-04-01T15:23:12;4.85;;;4.35;;
8978;SDS011;4524;51.364;5.448;2023-04-01T15:25:53;5.90;;;4.40;;
8978;SDS011;4524;51.364;5.448;2023-04-01T15:28:39;3.97;;;3.63;;
8978;SDS011;4524;51.364;5.448;2023-04-01T15:31:15;5.55;;;4.10;;
8978;SDS011;4524;51.364;5.448;2023-04-01T15:33:54;4.20;;;3.80;;
8978;SDS011;4524;51.364;5.448;2023-04-01T15:36:33;5.10;;;3.72;;
8978;SDS011;4524;51.364;5.448;2023-04-01T15:39:13;3.58;;;3.10;;
8978;SDS011;4524;51.364;5.448;2023-04-01T15:41:45;3.50;;;3.20;;
8978;SDS011;4524;51.364;5.448;2023-04-01T15:44:37;3.35;;;3.05;;
8978;SDS011;4524;51.364;5.448;2023-04-01T15:47:30;3.40;;;3.10;;
8978;SDS011;4524;51.364;5.448;2023-04-01T15:50:07;3.78;;;3.28;;
8978;SDS011;4524;51.364;5.448;2023-04-01T15:53:03;3.60;;;3.30;;
8978;SDS011;4524;51.364;5.448;2023-04-01T15:55:46;3.70;;;3.30;;
8978;SDS011;4524;51.364;5.448;2023-04-01T15:58:30;3.20;;;2.90;;
8978;SDS011;4524;51.364;5.448;2023-04-01T16:01:14;3.40;;;3.10;;
8978;SDS011;4524;51.364;5.448;2023-04-01T16:03:51;3.40;;;3.10;;
8978;SDS011;4524;51.364;5.448;2023-04-01T16:06:30;3.42;;;2.47;;
8978;SDS011;4524;51.364;5.448;2023-04-01T16:09:25;3.30;;;3.00;;
8978;SDS011;4524;51.364;5.448;2023-04-01T16:12:07;3.10;;;2.80;;
8978;SDS011;4524;51.364;5.448;2023-04-01T16:14:44;3.30;;;3.00;;
8978;SDS011;4524;51.364;5.448;2023-04-01T16:17:29;4.90;;;3.67;;
8978;SDS011;4524;51.364;5.448;2023-04-01T16:20:14;3.03;;;2.83;;
8978;SDS011;4524;51.364;5.448;2023-04-01T16:22:52;3.00;;;2.80;;
8978;SDS011;4524;51.364;5.448;2023-04-01T16:25:26;2.90;;;2.70;;
8978;SDS011;4524;51.364;5.448;2023-04-01T16:28:11;3.10;;;2.83;;
8978;SDS011;4524;51.364;5.448;2023-04-01T16:31:04;4.10;;;3.80;;
8978;SDS011;4524;51.364;5.448;2023-04-01T16:33:39;4.85;;;4.45;;
8978;SDS011;4524;51.364;5.448;2023-04-01T16:36:20;3.58;;;3.17;;
8978;SDS011;4524;51.364;5.448;2023-04-01T16:39:06;3.35;;;3.05;;
8978;SDS011;4524;51.364;5.448;2023-04-01T16:41:46;3.97;;;3.22;;
8978;SDS011;4524;51.364;5.448;2023-04-01T16:44:17;3.05;;;2.80;;
8978;SDS011;4524;51.364;5.448;2023-04-01T16:46:48;3.40;;;2.83;;
8978;SDS011;4524;51.364;5.448;2023-04-01T16:49:27;3.58;;;3.08;;
8978;SDS011;4524;51.364;5.448;2023-04-01T16:52:04;3.90;;;3.50;;
8978;SDS011;4524;51.364;5.448;2023-04-01T16:54:46;5.15;;;3.60;;
8978;SDS011;4524;51.364;5.448;2023-04-01T16:57:20;4.90;;;4.03;;
8978;SDS011;4524;51.364;5.448;2023-04-01T16:59:54;4.28;;;3.88;;
8978;SDS011;4524;51.364;5.448;2023-04-01T17:02:28;4.35;;;3.83;;
8978;SDS011;4524;51.364;5.448;2023-04-01T17:05:00;4.13;;;3.58;;
8978;SDS011;4524;51.364;5.448;2023-04-01T17:07:37;4.30;;;3.90;;
8978;SDS011;4524;51.364;5.448;2023-04-01T17:10:22;5.68;;;4.70;;
8978;SDS011;4524;51.364;5.448;2023-04-01T17:13:01;4.57;;;4.18;;
8978;SDS011;4524;51.364;5.448;2023-04-01T17:15:44;5.10;;;4.60;;
8978;SDS011;4524;51.364;5.448;2023-04-01T17:18:21;4.70;;;4.28;;
8978;SDS011;4524;51.364;5.448;2023-04-01T17:20:55;5.13;;;4.63;;
8978;SDS011;4524;51.364;5.448;2023-04-01T17:23:30;6.28;;;5.78;;